Time;durP1;ratioP1;P1;durP2;ratioP2;P2;SDS_P1;SDS_P2;PMS_P1;PMS_P2;Temp;Humidity;BMP_temperature;BMP_pressure;BME280_temperature;BME280_humidity;BME280_pressure;Samples;Min_cycle;Max_cycle;Signal;HPM_P1;HPM_P2
2022/10/24 00:00:12;;;;;;;;;;;;;;;-142.75;100.00;75826.28;5072009;28;20091;-64
2022/10/24 00:02:37;;;;;;;;;;;;;;;-142.75;100.00;75844.00;5085357;28;19916;-67
2022/10/24 00:05:03;;;;;;;;;;;;;;;-142.75;100.00;75824.31;5094483;22;19931;-64
2022/10/24 00:07:28;;;;;;;;;;;;;;;-142.75;100.00;75834.16;5089304;28;20386;-65
2022/10/24 00:09:53;;;;;;;;;;;;;;;-142.75;100.00;75828.25;5073651;28;20399;-65
2022/10/24 00:12:18;;;;;;;;;;;;;;;-142.75;100.00;75828.25;5092227;28;20002;-65
2022/10/24 00:14:44;;;;;;;;;;;;;;;-142.75;100.00;75808.56;5092171;28;19923;-64
2022/10/24 00:17:09;;;;;;;;;;;;;;;-142.75;100.00;75812.50;5091435;28;20408;-64
2022/10/24 00:19:34;;;;;;;;;;;;;;;-142.75;100.00;75794.78;5091813;28;19956;-65
2022/10/24 00:21:59;;;;;;;;;;;;;;;-142.75;100.00;75767.22;5091784;28;19923;-65
2022/10/24 00:24:24;;;;;;;;;;;;;;;-142.75;100.00;75771.16;5091695;28;19922;-65
2022/10/24 00:26:50;;;;;;;;;;;;;;;-142.75;100.00;75745.59;5091318;28;20331;-64
2022/10/24 00:29:15;;;;;;;;;;;;;;;-142.75;100.00;75721.97;5091614;28;19920;-65
2022/10/24 00:31:40;;;;;;;;;;;;;;;-142.75;100.00;75716.06;5091551;28;20452;-65
2022/10/24 00:34:06;;;;;;;;;;;;;;;-142.75;100.00;75710.16;5090622;28;19961;-64
2022/10/24 00:36:31;;;;;;;;;;;;;;;-142.75;100.00;75708.19;5071248;28;20018;-65
2022/10/24 00:38:57;;;;;;;;;;;;;;;-142.75;100.00;75712.13;5072076;28;19916;-65
2022/10/24 00:41:33;;;;;;;;;;;;;;;-142.75;100.00;75700.31;5071286;28;19993;-65
2022/10/24 00:44:18;;;;;;;;;;;;;;;-142.75;100.00;75692.44;5052685;28;21430;-65
2022/10/24 00:47:07;;;;;;;;;;;;;;;-142.75;100.00;75680.63;5071049;28;19927;-64
2022/10/24 00:49:42;;;;;;;;;;;;;;;-142.75;100.00;75682.59;5054927;28;19966;-65
2022/10/24 00:52:08;;;;;;;;;;;;;;;-142.75;100.00;75684.56;5071213;28;20356;-65
2022/10/24 00:54:34;;;;;;;;;;;;;;;-142.75;100.00;75682.59;5071132;28;19916;-65
2022/10/24 00:57:29;;;;;;;;;;;;;;;-142.75;100.00;75666.88;5070602;28;19924;-65
2022/10/24 00:59:56;;;;;;;;;;;;;;;-142.75;100.00;75645.22;5045038;28;19916;-65
2022/10/24 01:02:21;;;;;;;;;;;;;;;-142.75;100.00;75647.19;5070181;28;19927;-65
2022/10/24 01:04:47;;;;;;;;;;;;;;;-142.75;100.00;75653.09;5070731;28;19916;-65
2022/10/24 01:07:35;;;;;;;;;;;;;;;-142.75;100.00;75641.28;5070366;28;19916;-65
2022/10/24 01:10:06;;;;;;;;;;;;;;;-142.75;100.00;75639.31;5071295;28;20315;-65
2022/10/24 01:12:50;;;;;;;;;;;;;;;-142.75;100.00;75637.34;5070779;28;19986;-65
2022/10/24 01:15:22;;;;;;;;;;;;;;;-142.75;100.00;75635.38;5052583;28;20104;-65
2022/10/24 01:18:16;;;;;;;;;;;;;;;-142.75;100.00;75621.59;5070242;28;19951;-65
2022/10/24 01:20:51;;;;;;;;;;;;;;;-142.75;100.00;75621.59;5044559;28;20274;-65
2022/10/24 01:23:16;;;;;;;;;;;;;;;-142.75;100.00;75621.59;5070508;28;19917;-64
2022/10/24 01:25:58;;;;;;;;;;;;;;;-142.75;100.00;75617.66;5070422;28;19916;-64
2022/10/24 01:28:29;;;;;;;;;;;;;;;-142.75;100.00;75617.66;5051847;28;19923;-65
2022/10/24 01:31:10;;;;;;;;;;;;;;;-142.75;100.00;75609.78;5070296;28;20421;-65
2022/10/24 01:33:41;;;;;;;;;;;;;;;-142.75;100.00;75597.97;5070399;28;19920;-65
2022/10/24 01:36:06;;;;;;;;;;;;;;;-142.75;100.00;75596.00;5070315;28;19979;-64
2022/10/24 01:38:35;;;;;;;;;;;;;;;-142.75;100.00;75597.97;5070083;28;19924;-65
2022/10/24 01:41:03;;;;;;;;;;;;;;;-142.75;100.00;75599.94;5070823;28;20313;-65
2022/10/24 01:43:38;;;;;;;;;;;;;;;-142.75;100.00;75590.13;5070160;28;20297;-64
2022/10/24 01:46:05;;;;;;;;;;;;;;;-142.75;100.00;75605.84;5069943;28;20045;-65
2022/10/24 01:48:33;;;;;;;;;;;;;;;-142.75;100.00;75609.78;5069634;28;20420;-65
2022/10/24 01:51:00;;;;;;;;;;;;;;;-142.75;100.00;75597.97;5069972;28;19974;-65
2022/10/24 01:53:28;;;;;;;;;;;;;;;-142.75;100.00;75605.84;5069965;28;19974;-65
2022/10/24 01:55:53;;;;;;;;;;;;;;;-142.75;100.00;75613.72;5069734;28;19924;-65
2022/10/24 01:58:18;;;;;;;;;;;;;;;-142.75;100.00;75621.59;5060787;28;19947;-65
2022/10/24 02:00:46;;;;;;;;;;;;;;;-142.75;100.00;75621.59;5089885;28;19923;-65
2022/10/24 02:03:30;;;;;;;;;;;;;;;-142.75;100.00;75605.84;5090037;28;20366;-64
2022/10/24 02:05:57;;;;;;;;;;;;;;;-142.75;100.00;75594.06;5089696;28;19920;-65
2022/10/24 02:08:27;;;;;;;;;;;;;;;-142.75;100.00;75601.91;5089277;28;20385;-65
2022/10/24 02:10:55;;;;;;;;;;;;;;;-142.75;100.00;75601.91;5090684;28;19927;-65
2022/10/24 02:13:25;;;;;;;;;;;;;;;-142.75;100.00;75584.22;5089404;28;20013;-65
2022/10/24 02:15:53;;;;;;;;;;;;;;;-142.75;100.00;75590.13;5071077;28;19951;-65
2022/10/24 02:18:19;;;;;;;;;;;;;;;-142.75;100.00;75597.97;5089298;28;20445;-65
2022/10/24 02:20:53;;;;;;;;;;;;;;;-142.75;100.00;75584.22;5089564;28;20019;-64
2022/10/24 02:23:27;;;;;;;;;;;;;;;-142.75;100.00;75576.34;5089577;28;19916;-65
2022/10/24 02:25:53;;;;;;;;;;;;;;;-142.75;100.00;75594.06;5089512;28;19986;-65
2022/10/24 02:28:20;;;;;;;;;;;;;;;-142.75;100.00;75588.16;5089081;28;19916;-65
2022/10/24 02:30:50;;;;;;;;;;;;;;;-142.75;100.00;75605.84;5089117;28;19985;-65
2022/10/24 02:33:16;;;;;;;;;;;;;;;-142.75;100.00;75594.06;5089396;28;19998;-65
2022/10/24 02:35:42;;;;;;;;;;;;;;;-142.75;100.00;75609.78;5089286;28;19990;-65
2022/10/24 02:38:14;;;;;;;;;;;;;;;-142.75;100.00;75588.16;5088910;28;20385;-65
2022/10/24 02:40:41;;;;;;;;;;;;;;;-142.75;100.00;75601.91;5090335;28;19931;-64
2022/10/24 02:43:07;;;;;;;;;;;;;;;-142.75;100.00;75605.84;5068026;28;19917;-65
2022/10/24 02:45:34;;;;;;;;;;;;;;;-142.75;100.00;75607.81;5069167;28;20393;-63
2022/10/24 02:48:01;;;;;;;;;;;;;;;-142.75;100.00;75615.69;5068851;28;19920;-65
2022/10/24 02:50:27;;;;;;;;;;;;;;;-142.75;100.00;75601.91;5088006;28;19943;-65
2022/10/24 02:52:52;;;;;;;;;;;;;;;-142.75;100.00;75607.81;5089232;28;19967;-65
2022/10/24 02:55:17;;;;;;;;;;;;;;;-142.75;100.00;75603.88;5089052;28;20382;-65
2022/10/24 02:57:42;;;;;;;;;;;;;;;-142.75;100.00;75617.66;5088881;28;19968;-65
2022/10/24 03:00:08;;;;;;;;;;;;;;;-142.75;100.00;75621.59;5071002;28;20301;-65
2022/10/24 03:02:33;;;;;;;;;;;;;;;-142.75;100.00;75623.56;5088858;28;19916;-65
2022/10/24 03:04:59;;;;;;;;;;;;;;;-142.75;100.00;75617.66;5089045;28;19958;-64
2022/10/24 03:07:24;;;;;;;;;;;;;;;-142.75;100.00;75617.66;5088738;28;20394;-64
2022/10/24 03:09:49;;;;;;;;;;;;;;;-142.75;100.00;75621.59;5090042;28;20015;-64
2022/10/24 03:12:15;;;;;;;;;;;;;;;-142.75;100.00;75621.59;5070866;28;20014;-64
2022/10/24 03:14:41;;;;;;;;;;;;;;;-142.75;100.00;75615.69;5088662;28;19931;-65
2022/10/24 03:17:06;;;;;;;;;;;;;;;-142.75;100.00;75625.53;5088617;28;19920;-65
2022/10/24 03:19:31;;;;;;;;;;;;;;;-142.75;100.00;75631.44;5088950;28;19946;-66
2022/10/24 03:21:56;;;;;;;;;;;;;;;-142.75;100.00;75625.53;5070798;28;19938;-65
2022/10/24 03:24:21;;;;;;;;;;;;;;;-142.75;100.00;75635.38;5088934;28;20014;-65
2022/10/24 03:26:49;;;;;;;;;;;;;;;-142.75;100.00;75627.50;5091427;28;19939;-65
2022/10/24 03:29:14;;;;;;;;;;;;;;;-142.75;100.00;75623.56;5092418;28;20350;-65
2022/10/24 03:31:40;;;;;;;;;;;;;;;-142.75;100.00;75635.38;5092824;28;19920;-65
2022/10/24 03:34:05;;;;;;;;;;;;;;;-142.75;100.00;75629.47;5092752;28;19916;-64
2022/10/24 03:36:30;;;;;;;;;;;;;;;-142.75;100.00;75625.53;5092490;28;19920;-65
2022/10/24 03:38:55;;;;;;;;;;;;;;;-142.75;100.00;75629.47;5074573;28;19947;-65
2022/10/24 03:41:20;;;;;;;;;;;;;;;-142.75;100.00;75660.97;5093094;28;19920;-65
2022/10/24 03:43:46;;;;;;;;;;;;;;;-142.75;100.00;75631.44;5092409;28;19916;-65
2022/10/24 03:46:11;;;;;;;;;;;;;;;-142.75;100.00;75627.50;5092352;28;19927;-65
2022/10/24 03:48:36;;;;;;;;;;;;;;;-142.75;100.00;75633.41;5091676;28;20384;-65
2022/10/24 03:51:01;;;;;;;;;;;;;;;-142.75;100.00;75637.34;5091718;28;19920;-65
2022/10/24 03:53:26;;;;;;;;;;;;;;;-142.75;100.00;75643.25;5092326;28;20007;-65
2022/10/24 03:55:52;;;;;;;;;;;;;;;-142.75;100.00;75633.41;5092305;28;19924;-67
2022/10/24 03:58:17;;;;;;;;;;;;;;;-142.75;100.00;75637.34;5091395;28;19916;-65
2022/10/24 04:00:42;;;;;;;;;;;;;;;-142.75;100.00;75629.47;5091495;28;20013;-65
2022/10/24 04:03:08;;;;;;;;;;;;;;;-142.75;100.00;75627.50;5091469;28;20377;-65
2022/10/24 04:05:34;;;;;;;;;;;;;;;-142.75;100.00;75637.34;5091244;28;20007;-65
2022/10/24 04:07:59;;;;;;;;;;;;;;;-142.75;100.00;75625.53;5091092;28;20011;-65
2022/10/24 04:10:24;;;;;;;;;;;;;;;-142.75;100.00;75633.41;5092651;28;20278;-65
2022/10/24 04:12:49;;;;;;;;;;;;;;;-142.75;100.00;75627.50;5091027;28;19924;-65
2022/10/24 04:15:14;;;;;;;;;;;;;;;-142.75;100.00;75617.66;5091176;28;19916;-64
2022/10/24 04:17:40;;;;;;;;;;;;;;;-142.75;100.00;75615.69;5091088;28;19920;-65
2022/10/24 04:20:05;;;;;;;;;;;;;;;-142.75;100.00;75617.66;5091580;28;19994;-65
2022/10/24 04:22:30;;;;;;;;;;;;;;;-142.75;100.00;75615.69;5092226;28;19916;-65
2022/10/24 04:24:55;;;;;;;;;;;;;;;-142.75;100.00;75623.56;5092732;28;20420;-65
2022/10/24 04:27:21;;;;;;;;;;;;;;;-142.75;100.00;75611.75;5093236;28;19920;-65
2022/10/24 04:29:46;;;;;;;;;;;;;;;-142.75;100.00;75617.66;5075429;28;19977;-65
2022/10/24 04:32:11;;;;;;;;;;;;;;;-142.75;100.00;75605.84;5093596;28;19924;-65
2022/10/24 04:34:36;;;;;;;;;;;;;;;-142.75;100.00;75605.84;5093701;28;19916;-65
2022/10/24 04:37:02;;;;;;;;;;;;;;;-142.75;100.00;75599.94;5092054;28;20412;-65
2022/10/24 04:39:27;;;;;;;;;;;;;;;-142.75;100.00;75627.50;5093788;28;19923;-65
2022/10/24 04:41:52;;;;;;;;;;;;;;;-142.75;100.00;75597.97;5093440;28;19923;-65
2022/10/24 04:44:18;;;;;;;;;;;;;;;-142.75;100.00;75594.06;5093361;28;20278;-65
2022/10/24 04:46:43;;;;;;;;;;;;;;;-142.75;100.00;75609.78;5092992;28;20022;-66
2022/10/24 04:49:08;;;;;;;;;;;;;;;-142.75;100.00;75601.91;5093154;28;19916;-65
2022/10/24 04:51:34;;;;;;;;;;;;;;;-142.75;100.00;75599.94;5093338;28;19927;-65
2022/10/24 04:53:59;;;;;;;;;;;;;;;-142.75;100.00;75611.75;5093152;28;19916;-65
2022/10/24 04:56:25;;;;;;;;;;;;;;;-142.75;100.00;75625.53;5092932;28;20423;-65
2022/10/24 04:58:50;;;;;;;;;;;;;;;-142.75;100.00;75625.53;5092880;28;19924;-65
2022/10/24 05:01:16;;;;;;;;;;;;;;;-142.75;100.00;75609.78;5093073;28;19962;-65
2022/10/24 05:03:41;;;;;;;;;;;;;;;-142.75;100.00;75621.59;5093034;28;20393;-65
2022/10/24 05:06:06;;;;;;;;;;;;;;;-142.75;100.00;75625.53;5092696;28;19916;-65
2022/10/24 05:08:31;;;;;;;;;;;;;;;-142.75;100.00;75603.88;5092587;28;19927;-65
2022/10/24 05:10:57;;;;;;;;;;;;;;;-142.75;100.00;75619.63;5092744;28;20018;-64
2022/10/24 05:13:22;;;;;;;;;;;;;;;-142.75;100.00;75605.84;5092795;28;20482;-65
2022/10/24 05:15:47;;;;;;;;;;;;;;;-142.75;100.00;75623.56;5092728;28;19923;-65
2022/10/24 05:18:12;;;;;;;;;;;;;;;-142.75;100.00;75615.69;5092384;28;20278;-65
2022/10/24 05:20:38;;;;;;;;;;;;;;;-142.75;100.00;75617.66;5092777;28;20001;-65
2022/10/24 05:23:03;;;;;;;;;;;;;;;-142.75;100.00;75619.63;5092533;28;19938;-64
2022/10/24 05:25:28;;;;;;;;;;;;;;;-142.75;100.00;75625.53;5096212;28;19939;-65
2022/10/24 05:27:53;;;;;;;;;;;;;;;-142.75;100.00;75633.41;5093561;28;19924;-66
2022/10/24 05:30:19;;;;;;;;;;;;;;;-142.75;100.00;75633.41;5092891;28;19931;-65
2022/10/24 05:32:44;;;;;;;;;;;;;;;-142.75;100.00;75629.47;5092527;28;19923;-65
2022/10/24 05:35:10;;;;;;;;;;;;;;;-142.75;100.00;75645.22;5092341;28;19916;-65
2022/10/24 05:37:35;;;;;;;;;;;;;;;-142.75;100.00;75653.09;5092090;28;19916;-65
2022/10/24 05:40:01;;;;;;;;;;;;;;;-142.75;100.00;75645.22;5092232;28;19927;-65
2022/10/24 05:42:26;;;;;;;;;;;;;;;-142.75;100.00;75659.00;5092216;28;19916;-64
2022/10/24 05:44:51;;;;;;;;;;;;;;;-142.75;100.00;75653.09;5092142;28;19920;-64
2022/10/24 05:47:16;;;;;;;;;;;;;;;-142.75;100.00;75672.78;5091960;28;19923;-65
2022/10/24 05:49:42;;;;;;;;;;;;;;;-142.75;100.00;75651.13;5073675;28;19980;-65
2022/10/24 05:52:07;;;;;;;;;;;;;;;-142.75;100.00;75670.81;5092064;28;19965;-65
2022/10/24 05:54:32;;;;;;;;;;;;;;;-142.75;100.00;75657.03;5092009;28;19919;-65
2022/10/24 05:56:57;;;;;;;;;;;;;;;-142.75;100.00;75643.25;5091502;28;19923;-65
2022/10/24 05:59:22;;;;;;;;;;;;;;;-142.75;100.00;75664.91;5091992;28;19916;-65
2022/10/24 06:01:48;;;;;;;;;;;;;;;-142.75;100.00;75643.25;5091846;28;20255;-65
2022/10/24 06:04:13;;;;;;;;;;;;;;;-142.75;100.00;75653.09;5091969;28;19987;-65
2022/10/24 06:06:39;;;;;;;;;;;;;;;-142.75;100.00;75645.22;5111822;22;20332;-65
2022/10/24 06:09:04;;;;;;;;;;;;;;;-142.75;100.00;75647.19;5090018;28;19931;-66
2022/10/24 06:11:29;;;;;;;;;;;;;;;-142.75;100.00;75639.31;5109646;28;19959;-67
2022/10/24 06:13:54;;;;;;;;;;;;;;;-142.75;100.00;75641.28;5110683;28;19916;-66
2022/10/24 06:16:20;;;;;;;;;;;;;;;-142.75;100.00;75664.91;5086065;28;19923;-68
2022/10/24 06:18:45;;;;;;;;;;;;;;;-142.75;100.00;75657.03;5071212;28;19931;-67
2022/10/24 06:21:12;;;;;;;;;;;;;;;-142.75;100.00;75664.91;5071362;28;19916;-67
2022/10/24 06:23:37;;;;;;;;;;;;;;;-142.75;100.00;75668.84;5089702;28;20370;-67
2022/10/24 06:26:06;;;;;;;;;;;;;;;-142.75;100.00;75668.84;5090143;28;19923;-67
2022/10/24 06:28:31;;;;;;;;;;;;;;;-142.75;100.00;75682.59;5089808;28;19971;-67
2022/10/24 06:30:56;;;;;;;;;;;;;;;-142.75;100.00;75692.44;5090201;28;19962;-67
2022/10/24 06:33:21;;;;;;;;;;;;;;;-142.75;100.00;75700.31;5091489;28;20065;-68
2022/10/24 06:35:47;;;;;;;;;;;;;;;-142.75;100.00;75680.63;5091368;28;20374;-67
2022/10/24 06:38:12;;;;;;;;;;;;;;;-142.75;100.00;75676.69;5089746;28;19916;-68
2022/10/24 06:40:39;;;;;;;;;;;;;;;-142.75;100.00;75704.25;5090054;28;19916;-67
2022/10/24 06:43:05;;;;;;;;;;;;;;;-142.75;100.00;75694.41;5091329;28;19965;-67
2022/10/24 06:45:30;;;;;;;;;;;;;;;-142.75;100.00;75692.44;5091258;28;19916;-67
2022/10/24 06:47:55;;;;;;;;;;;;;;;-142.75;100.00;75694.41;5089644;28;20305;-68
2022/10/24 06:50:20;;;;;;;;;;;;;;;-142.75;100.00;75682.59;5075489;28;19916;-68
2022/10/24 06:52:45;;;;;;;;;;;;;;;-142.75;100.00;75692.44;5071136;28;19916;-68
2022/10/24 06:55:11;;;;;;;;;;;;;;;-142.75;100.00;75694.41;5071114;28;20003;-67
2022/10/24 06:57:36;;;;;;;;;;;;;;;-142.75;100.00;75712.13;5069262;28;19924;-67
2022/10/24 07:00:02;;;;;;;;;;;;;;;-142.75;100.00;75716.06;5069864;28;19923;-67
2022/10/24 07:02:27;;;;;;;;;;;;;;;-142.75;100.00;75716.06;5075066;28;19916;-66
2022/10/24 07:04:52;;;;;;;;;;;;;;;-142.75;100.00;75716.06;5075138;28;19916;-67
2022/10/24 07:07:19;;;;;;;;;;;;;;;-142.75;100.00;75723.94;5074505;28;19924;-67
2022/10/24 07:09:44;;;;;;;;;;;;;;;-142.75;100.00;75725.91;5075009;28;19981;-68
2022/10/24 07:12:09;;;;;;;;;;;;;;;-142.75;100.00;75739.69;5080444;28;19924;-67
2022/10/24 07:14:35;;;;;;;;;;;;;;;-142.75;100.00;75729.84;5078433;28;19920;-67
2022/10/24 07:17:00;;;;;;;;;;;;;;;-142.75;100.00;75749.53;5084146;28;19923;-67
2022/10/24 07:19:25;;;;;;;;;;;;;;;-142.75;100.00;75741.66;5091563;28;19935;-67
2022/10/24 07:21:50;;;;;;;;;;;;;;;-142.75;100.00;75749.53;5086611;28;19923;-67
2022/10/24 07:24:15;;;;;;;;;;;;;;;-142.75;100.00;75757.41;5087448;28;20454;-67
2022/10/24 07:26:41;;;;;;;;;;;;;;;-142.75;100.00;75755.44;5085747;28;19923;-67
2022/10/24 07:29:06;;;;;;;;;;;;;;;-142.75;100.00;75763.28;5080815;28;19999;-67
2022/10/24 07:31:32;;;;;;;;;;;;;;;-142.75;100.00;75765.25;5081477;28;19959;-66
2022/10/24 07:33:59;;;;;;;;;;;;;;;-142.75;100.00;75782.97;5079070;28;19924;-67
2022/10/24 07:36:25;;;;;;;;;;;;;;;-142.75;100.00;75773.13;5081207;28;19963;-65
2022/10/24 07:38:51;;;;;;;;;;;;;;;-142.75;100.00;75782.97;5078705;28;19944;-67
2022/10/24 07:41:16;;;;;;;;;;;;;;;-142.75;100.00;75790.84;5080246;28;19924;-66
2022/10/24 07:43:42;;;;;;;;;;;;;;;-142.75;100.00;75786.91;5079874;28;19916;-67
2022/10/24 07:46:11;;;;;;;;;;;;;;;-142.75;100.00;75800.69;5078630;28;19916;-64
2022/10/24 07:48:37;;;;;;;;;;;;;;;-142.75;100.00;75806.59;5083255;28;20397;-65
2022/10/24 07:51:06;;;;;;;;;;;;;;;-142.75;100.00;75810.53;5087051;28;19923;-67
2022/10/24 07:53:32;;;;;;;;;;;;;;;-142.75;100.00;75822.34;5087541;28;19916;-67
2022/10/24 07:55:58;;;;;;;;;;;;;;;-142.75;100.00;75806.59;5081149;28;20333;-65
2022/10/24 07:58:24;;;;;;;;;;;;;;;-142.75;100.00;75818.41;5085948;28;19923;-68
2022/10/24 08:00:49;;;;;;;;;;;;;;;-142.75;100.00;75844.00;5074639;28;20306;-67
2022/10/24 08:03:14;;;;;;;;;;;;;;;-142.75;100.00;75857.78;5087710;28;19920;-68
2022/10/24 08:05:39;;;;;;;;;;;;;;;-142.75;100.00;75865.63;5086541;28;19923;-67
2022/10/24 08:08:05;;;;;;;;;;;;;;;-142.75;100.00;75879.41;5083549;28;19931;-68
2022/10/24 08:10:30;;;;;;;;;;;;;;;-142.75;100.00;75891.22;5088230;28;19916;-67
2022/10/24 08:12:55;;;;;;;;;;;;;;;-142.75;100.00;75920.75;5093925;28;20266;-67
2022/10/24 08:15:21;;;;;;;;;;;;;;;-142.75;100.00;75940.44;5093938;28;20007;-67
2022/10/24 08:17:47;;;;;;;;;;;;;;;-142.75;100.00;75956.19;5092336;28;19923;-68
2022/10/24 08:20:12;;;;;;;;;;;;;;;-142.75;100.00;75969.94;5093742;28;20301;-67
2022/10/24 08:22:37;;;;;;;;;;;;;;;-142.75;100.00;75987.66;5093854;28;19934;-67
2022/10/24 08:25:04;;;;;;;;;;;;;;;-142.75;100.00;75987.66;5093876;28;19935;-67
2022/10/24 08:27:30;;;;;;;;;;;;;;;-142.75;100.00;75979.78;5082692;28;19916;-65
2022/10/24 08:29:55;;;;;;;;;;;;;;;-142.75;100.00;75999.47;5077431;28;19927;-67
2022/10/24 08:32:20;;;;;;;;;;;;;;;-142.75;100.00;75995.53;5084231;28;19923;-66
2022/10/24 08:34:45;;;;;;;;;;;;;;;-142.75;100.00;75999.47;5082163;28;19916;-67
2022/10/24 08:37:10;;;;;;;;;;;;;;;-142.75;100.00;75995.53;5076193;28;19916;-67
2022/10/24 08:39:36;;;;;;;;;;;;;;;-142.75;100.00;75987.66;5073411;28;19916;-67
2022/10/24 08:42:04;;;;;;;;;;;;;;;-142.75;100.00;75987.66;5072121;28;20293;-67
2022/10/24 08:44:34;;;;;;;;;;;;;;;-142.75;100.00;75975.84;5083489;28;20364;-67
2022/10/24 08:47:06;;;;;;;;;;;;;;;-142.75;100.00;75979.78;5082235;28;19916;-67
2022/10/24 08:49:43;;;;;;;;;;;;;;;-142.75;100.00;75989.63;5082298;28;19927;-67
2022/10/24 08:52:15;;;;;;;;;;;;;;;-142.75;100.00;75985.69;5085828;28;19958;-65
2022/10/24 08:54:42;;;;;;;;;;;;;;;-142.75;100.00;75999.47;5093329;28;19916;-65
2022/10/24 08:57:14;;;;;;;;;;;;;;;-142.75;100.00;76005.38;5092316;28;19954;-67
2022/10/24 08:59:39;;;;;;;;;;;;;;;-142.75;100.00;76005.38;5093194;28;19924;-67
2022/10/24 09:02:12;;;;;;;;;;;;;;;-142.75;100.00;76015.22;5091415;28;19938;-67
2022/10/24 09:04:45;;;;;;;;;;;;;;;-142.75;100.00;76013.25;5090899;28;20297;-67
2022/10/24 09:07:15;;;;;;;;;;;;;;;-142.75;100.00;76015.22;5091915;28;20011;-68
2022/10/24 09:09:44;;;;;;;;;;;;;;;-142.75;100.00;76007.34;5092179;28;20377;-68
2022/10/24 09:12:12;;;;;;;;;;;;;;;-142.75;100.00;76009.31;5090955;28;19966;-68
2022/10/24 09:14:39;;;;;;;;;;;;;;;-142.75;100.00;76007.34;5092100;28;19916;-68
2022/10/24 09:17:17;;;;;;;;;;;;;;;-142.75;100.00;76038.84;5091762;28;19973;-68
2022/10/24 09:19:53;;;;;;;;;;;;;;;-142.75;100.00;76038.84;5080912;28;20003;-68
2022/10/24 09:22:19;;;;;;;;;;;;;;;-142.75;100.00;76023.09;5091861;28;20343;-67
2022/10/24 09:24:49;;;;;;;;;;;;;;;-142.75;100.00;76011.28;5090024;28;19966;-68
2022/10/24 09:27:16;;;;;;;;;;;;;;;-142.75;100.00;76007.34;5091707;28;19973;-68
2022/10/24 09:29:42;;;;;;;;;;;;;;;-142.75;100.00;75940.44;5091752;28;19927;-67
2022/10/24 09:32:33;;;;;;;;;;;;;;;-142.75;100.00;75914.84;5092318;28;19975;-68
2022/10/24 09:35:01;;;;;;;;;;;;;;;-142.75;100.00;75859.72;5087482;28;19924;-65
2022/10/24 09:37:43;;;;;;;;;;;;;;;-142.75;100.00;75834.16;5091332;28;20381;-67
2022/10/24 09:40:08;;;;;;;;;;;;;;;-142.75;100.00;75806.59;5091603;28;19916;-68
2022/10/24 09:42:34;;;;;;;;;;;;;;;-142.75;100.00;75782.97;5090078;28;20351;-66
2022/10/24 09:45:00;;;;;;;;;;;;;;;-142.75;100.00;75763.28;5091620;28;19923;-67
2022/10/24 09:47:28;;;;;;;;;;;;;;;-142.75;100.00;75775.09;5091165;28;20004;-68
2022/10/24 09:49:53;;;;;;;;;;;;;;;-142.75;100.00;75822.34;5091266;28;19920;-68
2022/10/24 09:52:21;;;;;;;;;;;;;;;-142.75;100.00;75853.84;5091356;28;19920;-68
2022/10/24 09:55:02;;;;;;;;;;;;;;;-142.75;100.00;75867.59;5091208;28;19951;-68
2022/10/24 09:57:36;;;;;;;;;;;;;;;-142.75;100.00;75875.47;5090969;28;19959;-66
2022/10/24 10:00:03;;;;;;;;;;;;;;;-142.75;100.00;75844.00;5090394;28;19927;-66
2022/10/24 10:02:33;;;;;;;;;;;;;;;-142.75;100.00;75842.03;5091417;28;19916;-65
2022/10/24 10:05:01;;;;;;;;;;;;;;;-142.75;100.00;75857.78;5089735;28;19952;-68
2022/10/24 10:07:28;;;;;;;;;;;;;;;-142.75;100.00;75861.69;5090566;28;19927;-68
2022/10/24 10:09:55;;;;;;;;;;;;;;;-142.75;100.00;75845.97;5091343;28;19972;-69
2022/10/24 10:12:26;;;;;;;;;;;;;;;-142.75;100.00;75861.69;5091008;28;19937;-68
2022/10/24 10:14:51;;;;;;;;;;;;;;;-142.75;100.00;75788.88;5091106;28;20002;-67
2022/10/24 10:17:24;;;;;;;;;;;;;;;-142.75;100.00;75796.75;5090733;28;20057;-68
2022/10/24 10:19:50;;;;;;;;;;;;;;;-142.75;100.00;75849.91;5091053;28;19915;-68
2022/10/24 10:22:25;;;;;;;;;;;;;;;-142.75;100.00;75877.44;5089498;28;19923;-68
2022/10/24 10:24:50;;;;;;;;;;;;;;;-142.75;100.00;75920.75;5091001;28;19989;-67
2022/10/24 10:27:22;;;;;;;;;;;;;;;-142.75;100.00;75930.59;5090578;28;19977;-68
2022/10/24 10:29:47;;;;;;;;;;;;;;;-142.75;100.00;75944.38;5090899;28;19920;-67
2022/10/24 10:32:18;;;;;;;;;;;;;;;-142.75;100.00;75950.28;5091157;28;19916;-68
2022/10/24 10:34:52;;;;;;;;;;;;;;;-142.75;100.00;75944.38;5090394;28;20336;-68
2022/10/24 10:37:32;;;;;;;;;;;;;;;-142.75;100.00;75964.03;5090363;28;19923;-68
2022/10/24 10:39:57;;;;;;;;;;;;;;;-142.75;100.00;75979.78;5090474;28;19916;-68
2022/10/24 10:42:28;;;;;;;;;;;;;;;-142.75;100.00;76015.22;5090681;28;19923;-68
2022/10/24 10:44:59;;;;;;;;;;;;;;;-142.75;100.00;76030.97;5090437;28;21402;-69
2022/10/24 10:47:34;;;;;;;;;;;;;;;-142.75;100.00;76038.84;5090409;28;19970;-67
2022/10/24 10:49:59;;;;;;;;;;;;;;;-142.75;100.00;76058.53;5090278;28;19928;-67
2022/10/24 10:52:29;;;;;;;;;;;;;;;-142.75;100.00;76097.88;5070629;28;20025;-67
2022/10/24 10:54:57;;;;;;;;;;;;;;;-142.75;100.00;76105.75;5082066;28;19951;-68
2022/10/24 10:57:45;;;;;;;;;;;;;;;-142.75;100.00;76133.31;5076550;28;19931;-68
2022/10/24 11:00:17;;;;;;;;;;;;;;;-142.75;100.00;76156.94;5050840;28;19916;-67
2022/10/24 11:02:45;;;;;;;;;;;;;;;-142.75;100.00;76145.13;5070637;28;19916;-67
2022/10/24 11:05:19;;;;;;;;;;;;;;;-142.75;100.00;76158.91;5073008;28;19916;-67
2022/10/24 11:07:55;;;;;;;;;;;;;;;-142.75;100.00;76178.59;5088973;28;19920;-67
2022/10/24 11:10:23;;;;;;;;;;;;;;;-142.75;100.00;76186.47;5090937;28;20011;-68
2022/10/24 11:12:48;;;;;;;;;;;;;;;-142.75;100.00;76180.56;5090355;28;19963;-68
2022/10/24 11:15:23;;;;;;;;;;;;;;;-142.75;100.00;76184.50;5090736;28;19967;-68
2022/10/24 11:18:04;;;;;;;;;;;;;;;-142.75;100.00;76182.53;5090591;28;19962;-67
2022/10/24 11:20:50;;;;;;;;;;;;;;;-142.75;100.00;76172.69;5090859;28;19916;-67
2022/10/24 11:23:15;;;;;;;;;;;;;;;-142.75;100.00;76156.94;5091187;28;20399;-67
2022/10/24 11:25:44;;;;;;;;;;;;;;;-142.75;100.00;76164.81;5086310;28;19960;-67
2022/10/24 11:28:17;;;;;;;;;;;;;;;-142.75;100.00;76153.00;5070261;28;19927;-67
2022/10/24 11:30:45;;;;;;;;;;;;;;;-142.75;100.00;76160.88;5090641;28;19924;-67
2022/10/24 11:33:14;;;;;;;;;;;;;;;-142.75;100.00;76139.22;5089844;28;19923;-68
2022/10/24 11:35:43;;;;;;;;;;;;;;;-142.75;100.00;76149.06;5087359;28;19916;-67
2022/10/24 11:38:14;;;;;;;;;;;;;;;-142.75;100.00;76158.91;5081465;28;19999;-67
2022/10/24 11:40:42;;;;;;;;;;;;;;;-142.75;100.00;76154.97;5081096;28;19916;-66
2022/10/24 11:43:10;;;;;;;;;;;;;;;-142.75;100.00;76117.56;5079565;28;19962;-67
2022/10/24 11:45:43;;;;;;;;;;;;;;;-142.75;100.00;76111.66;5080202;28;19969;-68
2022/10/24 11:48:09;;;;;;;;;;;;;;;-142.75;100.00;76113.63;5093764;28;19924;-67
2022/10/24 11:50:48;;;;;;;;;;;;;;;-142.75;100.00;76117.56;5093233;28;19959;-67
2022/10/24 11:53:24;;;;;;;;;;;;;;;-142.75;100.00;76109.69;5094402;28;19962;-67
2022/10/24 11:55:53;;;;;;;;;;;;;;;-142.75;100.00;76111.66;5094375;28;20381;-68
2022/10/24 11:58:20;;;;;;;;;;;;;;;-142.75;100.00;76111.66;5094092;28;19916;-67
2022/10/24 12:00:46;;;;;;;;;;;;;;;-142.75;100.00;76105.75;5085008;28;19924;-68
2022/10/24 12:03:32;;;;;;;;;;;;;;;-142.75;100.00;76080.16;5082940;28;19915;-67
2022/10/24 12:05:57;;;;;;;;;;;;;;;-142.75;100.00;76058.53;5083992;28;19969;-67
2022/10/24 12:08:22;;;;;;;;;;;;;;;-142.75;100.00;76050.66;5087107;28;20401;-68
2022/10/24 12:10:50;;;;;;;;;;;;;;;-142.75;100.00;76062.47;5092865;28;20019;-70
2022/10/24 12:13:34;;;;;;;;;;;;;;;-142.75;100.00;76070.34;5094103;28;19920;-69
2022/10/24 12:16:02;;;;;;;;;;;;;;;-142.75;100.00;76086.06;5093986;28;19916;-69
2022/10/24 12:18:27;;;;;;;;;;;;;;;-142.75;100.00;76099.84;5093715;28;19916;-67
2022/10/24 12:20:54;;;;;;;;;;;;;;;-142.75;100.00;76117.56;5093985;28;19934;-68